sensor_id;sensor_type;location;lat;lon;timestamp;pressure;altitude;pressure_sealevel;temperature;humidity
40612;BME280;26317;44.894;20.286;2023-01-09T00:02:19;100557.59;;;9.16;69.48
40612;BME280;26317;44.894;20.286;2023-01-09T00:04:45;100560.28;;;9.16;69.54
40612;BME280;26317;44.894;20.286;2023-01-09T00:07:10;100553.81;;;9.07;69.43
40612;BME280;26317;44.894;20.286;2023-01-09T00:09:36;100555.19;;;9.10;69.36
40612;BME280;26317;44.894;20.286;2023-01-09T00:12:01;100566.66;;;9.10;69.56
40612;BME280;26317;44.894;20.286;2023-01-09T00:14:27;100560.78;;;9.08;69.63
40612;BME280;26317;44.894;20.286;2023-01-09T00:16:55;100494.28;;;8.75;69.63
40612;BME280;26317;44.894;20.286;2023-01-09T00:19:21;100542.03;;;9.03;69.23
40612;BME280;26317;44.894;20.286;2023-01-09T00:21:47;100551.38;;;9.01;69.53
40612;BME280;26317;44.894;20.286;2023-01-09T00:24:12;100544.94;;;8.97;69.62
40612;BME280;26317;44.894;20.286;2023-01-09T00:26:38;100540.38;;;8.92;69.57
40612;BME280;26317;44.894;20.286;2023-01-09T00:29:06;100500.66;;;8.69;69.42
40612;BME280;26317;44.894;20.286;2023-01-09T00:31:34;100536.59;;;8.88;69.44
40612;BME280;26317;44.894;20.286;2023-01-09T00:34:03;100536.03;;;8.86;69.47
40612;BME280;26317;44.894;20.286;2023-01-09T00:36:30;100470.56;;;8.42;69.40
40612;BME280;26317;44.894;20.286;2023-01-09T00:38:56;100501.16;;;8.66;69.44
40612;BME280;26317;44.894;20.286;2023-01-09T00:41:38;100517.25;;;8.71;69.85
40612;BME280;26317;44.894;20.286;2023-01-09T00:44:12;100482.09;;;8.47;69.63
40612;BME280;26317;44.894;20.286;2023-01-09T00:46:42;100522.56;;;8.66;69.74
40612;BME280;26317;44.894;20.286;2023-01-09T00:49:10;100470.22;;;8.33;69.94
40612;BME280;26317;44.894;20.286;2023-01-09T00:51:38;100511.00;;;8.55;70.31
40612;BME280;26317;44.894;20.286;2023-01-09T00:54:05;100499.72;;;8.43;70.01
40612;BME280;26317;44.894;20.286;2023-01-09T00:56:33;100469.34;;;8.27;70.55
40612;BME280;26317;44.894;20.286;2023-01-09T00:59:01;100506.09;;;8.42;70.48
40612;BME280;26317;44.894;20.286;2023-01-09T01:01:26;100474.66;;;8.22;70.59
40612;BME280;26317;44.894;20.286;2023-01-09T01:03:52;100497.25;;;8.37;70.89
40612;BME280;26317;44.894;20.286;2023-01-09T01:06:17;100493.50;;;8.38;70.91
40612;BME280;26317;44.894;20.286;2023-01-09T01:09:01;100493.50;;;8.38;70.66
40612;BME280;26317;44.894;20.286;2023-01-09T01:11:27;100487.31;;;8.32;70.83
40612;BME280;26317;44.894;20.286;2023-01-09T01:13:53;100490.56;;;8.34;70.56
40612;BME280;26317;44.894;20.286;2023-01-09T01:16:19;100481.72;;;8.34;70.89
40612;BME280;26317;44.894;20.286;2023-01-09T01:18:44;100488.66;;;8.29;70.94
40612;BME280;26317;44.894;20.286;2023-01-09T01:21:12;100473.81;;;8.17;70.97
40612;BME280;26317;44.894;20.286;2023-01-09T01:23:38;100477.25;;;8.12;70.81
40612;BME280;26317;44.894;20.286;2023-01-09T01:26:10;100493.34;;;8.22;71.46
40612;BME280;26317;44.894;20.286;2023-01-09T01:28:36;100455.78;;;7.97;71.51
40612;BME280;26317;44.894;20.286;2023-01-09T01:31:02;100478.59;;;8.10;71.48
40612;BME280;26317;44.894;20.286;2023-01-09T01:33:28;100474.78;;;8.06;71.64
40612;BME280;26317;44.894;20.286;2023-01-09T01:36:04;100480.69;;;8.08;71.73
40612;BME280;26317;44.894;20.286;2023-01-09T01:38:30;100475.06;;;8.04;71.96
40612;BME280;26317;44.894;20.286;2023-01-09T01:40:56;100473.44;;;8.03;71.56
40612;BME280;26317;44.894;20.286;2023-01-09T01:43:22;100475.88;;;8.05;71.54
40612;BME280;26317;44.894;20.286;2023-01-09T01:45:47;100463.81;;;8.02;72.04
40612;BME280;26317;44.894;20.286;2023-01-09T01:48:17;100463.81;;;8.02;72.24
40612;BME280;26317;44.894;20.286;2023-01-09T01:50:47;100446.69;;;7.93;72.34
40612;BME280;26317;44.894;20.286;2023-01-09T01:56:17;100418.22;;;7.77;72.42
40612;BME280;26317;44.894;20.286;2023-01-09T01:58:47;100412.34;;;7.75;72.50
40612;BME280;26317;44.894;20.286;2023-01-09T02:01:14;100423.53;;;7.72;73.08
40612;BME280;26317;44.894;20.286;2023-01-09T02:03:40;100413.63;;;7.67;72.92
40612;BME280;26317;44.894;20.286;2023-01-09T02:06:08;100405.28;;;7.59;73.25
40612;BME280;26317;44.894;20.286;2023-01-09T02:08:35;100381.72;;;7.51;73.19
40612;BME280;26317;44.894;20.286;2023-01-09T02:11:02;100406.88;;;7.60;73.53
40612;BME280;26317;44.894;20.286;2023-01-09T02:13:28;100362.41;;;7.38;73.56
40612;BME280;26317;44.894;20.286;2023-01-09T02:18:49;100372.09;;;7.50;73.92
40612;BME280;26317;44.894;20.286;2023-01-09T02:39:54;100359.69;;;7.33;74.20
40612;BME280;26317;44.894;20.286;2023-01-09T02:42:23;100355.75;;;7.41;74.38
40612;BME280;26317;44.894;20.286;2023-01-09T02:44:49;100354.88;;;7.35;74.43
40612;BME280;26317;44.894;20.286;2023-01-09T02:50:01;100331.84;;;7.24;74.40
40612;BME280;26317;44.894;20.286;2023-01-09T03:05:42;100291.13;;;7.02;75.19
40612;BME280;26317;44.894;20.286;2023-01-09T03:08:14;100306.25;;;7.23;74.95
40612;BME280;26317;44.894;20.286;2023-01-09T03:13:13;100303.50;;;7.13;75.08
40612;BME280;26317;44.894;20.286;2023-01-09T03:15:43;100307.81;;;7.19;75.42
40612;BME280;26317;44.894;20.286;2023-01-09T03:18:11;100296.09;;;7.20;75.35
40612;BME280;26317;44.894;20.286;2023-01-09T03:20:38;100287.22;;;7.15;75.13
40612;BME280;26317;44.894;20.286;2023-01-09T03:23:06;100265.22;;;6.98;75.16
40612;BME280;26317;44.894;20.286;2023-01-09T03:25:32;100227.47;;;6.79;75.38
40612;BME280;26317;44.894;20.286;2023-01-09T03:28:04;100272.56;;;7.12;75.18
40612;BME280;26317;44.894;20.286;2023-01-09T03:30:31;100276.56;;;7.15;74.77
40612;BME280;26317;44.894;20.286;2023-01-09T03:32:58;100243.88;;;6.98;75.12
40612;BME280;26317;44.894;20.286;2023-01-09T03:35:24;100281.09;;;7.14;74.93
40612;BME280;26317;44.894;20.286;2023-01-09T03:37:50;100268.22;;;7.06;75.06
40612;BME280;26317;44.894;20.286;2023-01-09T03:40:19;100262.69;;;7.13;74.89
40612;BME280;26317;44.894;20.286;2023-01-09T03:42:45;100252.78;;;7.08;75.33
40612;BME280;26317;44.894;20.286;2023-01-09T03:45:11;100232.44;;;6.97;75.18
40612;BME280;26317;44.894;20.286;2023-01-09T03:47:37;100258.66;;;7.10;75.16
40612;BME280;26317;44.894;20.286;2023-01-09T03:50:03;100246.06;;;7.06;75.14
40612;BME280;26317;44.894;20.286;2023-01-09T03:52:29;100243.69;;;7.04;75.34
40612;BME280;26317;44.894;20.286;2023-01-09T03:54:54;100242.94;;;7.09;75.08
40612;BME280;26317;44.894;20.286;2023-01-09T03:57:20;100216.09;;;6.88;75.13
40612;BME280;26317;44.894;20.286;2023-01-09T03:59:45;100204.34;;;6.89;75.14
40612;BME280;26317;44.894;20.286;2023-01-09T04:02:11;100218.03;;;6.98;75.16
40612;BME280;26317;44.894;20.286;2023-01-09T04:04:36;100198.53;;;6.92;75.06
40612;BME280;26317;44.894;20.286;2023-01-09T04:07:02;100215.44;;;7.08;74.94
40612;BME280;26317;44.894;20.286;2023-01-09T04:09:27;100220.50;;;7.10;74.75
40612;BME280;26317;44.894;20.286;2023-01-09T04:11:53;100228.25;;;7.11;75.07
40612;BME280;26317;44.894;20.286;2023-01-09T04:14:18;100225.84;;;7.10;74.56
40612;BME280;26317;44.894;20.286;2023-01-09T04:16:44;100237.63;;;7.14;74.83
40612;BME280;26317;44.894;20.286;2023-01-09T04:19:09;100230.97;;;7.16;74.83
40612;BME280;26317;44.894;20.286;2023-01-09T04:21:35;100221.63;;;7.14;74.45
40612;BME280;26317;44.894;20.286;2023-01-09T04:24:00;100222.41;;;7.14;74.75
40612;BME280;26317;44.894;20.286;2023-01-09T04:26:27;100237.41;;;7.20;74.22
40612;BME280;26317;44.894;20.286;2023-01-09T04:28:53;100233.66;;;7.16;74.56
40612;BME280;26317;44.894;20.286;2023-01-09T04:31:19;100230.47;;;7.19;74.51
40612;BME280;26317;44.894;20.286;2023-01-09T04:33:44;100252.38;;;7.26;74.11
40612;BME280;26317;44.894;20.286;2023-01-09T04:36:10;100252.41;;;7.31;74.24
40612;BME280;26317;44.894;20.286;2023-01-09T04:38:35;100213.78;;;7.02;74.10
40612;BME280;26317;44.894;20.286;2023-01-09T04:41:01;100244.34;;;7.21;73.81
40612;BME280;26317;44.894;20.286;2023-01-09T04:43:26;100219.41;;;7.06;73.92
40612;BME280;26317;44.894;20.286;2023-01-09T04:45:52;100233.94;;;7.20;73.85
40612;BME280;26317;44.894;20.286;2023-01-09T04:48:18;100221.31;;;7.10;73.77
40612;BME280;26317;44.894;20.286;2023-01-09T04:50:43;100249.25;;;7.34;73.79
40612;BME280;26317;44.894;20.286;2023-01-09T04:53:09;100237.78;;;7.34;73.69
40612;BME280;26317;44.894;20.286;2023-01-09T04:55:34;100220.56;;;7.15;73.74
40612;BME280;26317;44.894;20.286;2023-01-09T04:58:00;100214.97;;;7.16;74.04
40612;BME280;26317;44.894;20.286;2023-01-09T05:00:25;100232.41;;;7.29;73.69
40612;BME280;26317;44.894;20.286;2023-01-09T05:02:51;100215.25;;;7.20;73.83
40612;BME280;26317;44.894;20.286;2023-01-09T05:05:16;100235.31;;;7.27;73.73
40612;BME280;26317;44.894;20.286;2023-01-09T05:07:42;100240.19;;;7.35;73.51
40612;BME280;26317;44.894;20.286;2023-01-09T05:10:09;100244.47;;;7.36;73.45
40612;BME280;26317;44.894;20.286;2023-01-09T05:12:34;100248.44;;;7.34;73.61
40612;BME280;26317;44.894;20.286;2023-01-09T05:15:01;100236.44;;;7.36;73.70
40612;BME280;26317;44.894;20.286;2023-01-09T05:17:28;100251.13;;;7.39;73.26
40612;BME280;26317;44.894;20.286;2023-01-09T05:19:53;100263.72;;;7.44;73.23
40612;BME280;26317;44.894;20.286;2023-01-09T05:22:19;100211.03;;;7.24;73.23
40612;BME280;26317;44.894;20.286;2023-01-09T05:24:44;100196.88;;;7.23;73.18
40612;BME280;26317;44.894;20.286;2023-01-09T05:27:10;100229.63;;;7.51;72.76
40612;BME280;26317;44.894;20.286;2023-01-09T05:29:35;100223.19;;;7.47;72.64
40612;BME280;26317;44.894;20.286;2023-01-09T05:32:01;100165.88;;;7.12;72.37
40612;BME280;26317;44.894;20.286;2023-01-09T05:34:27;100190.25;;;7.31;72.65
40612;BME280;26317;44.894;20.286;2023-01-09T05:36:52;100226.94;;;7.51;72.40
40612;BME280;26317;44.894;20.286;2023-01-09T05:39:18;100214.38;;;7.46;72.71
40612;BME280;26317;44.894;20.286;2023-01-09T05:41:43;100216.28;;;7.51;72.14
40612;BME280;26317;44.894;20.286;2023-01-09T05:44:09;100217.09;;;7.56;72.53
40612;BME280;26317;44.894;20.286;2023-01-09T05:46:34;100221.91;;;7.54;72.06
40612;BME280;26317;44.894;20.286;2023-01-09T05:49:00;100209.88;;;7.57;71.95
40612;BME280;26317;44.894;20.286;2023-01-09T05:51:25;100207.47;;;7.50;72.17
40612;BME280;26317;44.894;20.286;2023-01-09T05:53:51;100205.03;;;7.49;72.00
40612;BME280;26317;44.894;20.286;2023-01-09T05:56:16;100208.00;;;7.52;72.03
40612;BME280;26317;44.894;20.286;2023-01-09T05:58:42;100171.38;;;7.37;72.18
40612;BME280;26317;44.894;20.286;2023-01-09T06:01:08;100211.50;;;7.58;72.36
40612;BME280;26317;44.894;20.286;2023-01-09T06:03:33;100211.75;;;7.56;71.93
40612;BME280;26317;44.894;20.286;2023-01-09T06:05:59;100204.03;;;7.60;72.08
40612;BME280;26317;44.894;20.286;2023-01-09T06:08:24;100178.31;;;7.44;72.06
40612;BME280;26317;44.894;20.286;2023-01-09T06:10:50;100177.03;;;7.46;71.92
40612;BME280;26317;44.894;20.286;2023-01-09T06:13:15;100181.06;;;7.54;71.76
40612;BME280;26317;44.894;20.286;2023-01-09T06:15:41;100162.38;;;7.54;71.78
40612;BME280;26317;44.894;20.286;2023-01-09T06:18:07;100191.31;;;7.72;72.05
40612;BME280;26317;44.894;20.286;2023-01-09T06:20:33;100190.53;;;7.76;71.77
40612;BME280;26317;44.894;20.286;2023-01-09T06:22:59;100168.84;;;7.73;71.99
40612;BME280;26317;44.894;20.286;2023-01-09T06:25:24;100177.19;;;7.81;72.01
40612;BME280;26317;44.894;20.286;2023-01-09T06:27:50;100165.41;;;7.77;71.95
40612;BME280;26317;44.894;20.286;2023-01-09T06:30:19;100173.75;;;7.91;71.73
40612;BME280;26317;44.894;20.286;2023-01-09T06:32:49;100178.84;;;7.93;71.87
40612;BME280;26317;44.894;20.286;2023-01-09T06:35:15;100140.03;;;7.70;71.96
40612;BME280;26317;44.894;20.286;2023-01-09T06:37:46;100148.63;;;7.82;71.73
40612;BME280;26317;44.894;20.286;2023-01-09T06:40:12;100133.38;;;7.77;71.78
40612;BME280;26317;44.894;20.286;2023-01-09T06:42:38;100155.59;;;7.98;71.52
40612;BME280;26317;44.894;20.286;2023-01-09T06:45:03;100159.34;;;8.02;71.96
40612;BME280;26317;44.894;20.286;2023-01-09T06:47:29;100159.94;;;8.09;72.11
40612;BME280;26317;44.894;20.286;2023-01-09T06:49:55;100151.38;;;8.12;72.07
40612;BME280;26317;44.894;20.286;2023-01-09T06:52:22;100141.22;;;8.09;71.90
40612;BME280;26317;44.894;20.286;2023-01-09T06:54:47;100155.41;;;8.20;71.84
40612;BME280;26317;44.894;20.286;2023-01-09T06:57:13;100124.38;;;8.04;71.59
40612;BME280;26317;44.894;20.286;2023-01-09T06:59:40;100148.72;;;8.27;70.86
40612;BME280;26317;44.894;20.286;2023-01-09T07:02:15;100156.28;;;8.30;71.17
40612;BME280;26317;44.894;20.286;2023-01-09T07:04:42;100137.28;;;8.32;70.56
40612;BME280;26317;44.894;20.286;2023-01-09T07:07:07;100120.16;;;8.28;70.59
40612;BME280;26317;44.894;20.286;2023-01-09T07:09:33;100108.13;;;8.20;70.40
40612;BME280;26317;44.894;20.286;2023-01-09T07:11:58;100090.75;;;8.23;70.14
40612;BME280;26317;44.894;20.286;2023-01-09T07:14:24;100119.13;;;8.49;69.82
40612;BME280;26317;44.894;20.286;2023-01-09T07:16:49;100122.06;;;8.48;70.30
40612;BME280;26317;44.894;20.286;2023-01-09T07:19:15;100106.31;;;8.46;69.90
40612;BME280;26317;44.894;20.286;2023-01-09T07:21:40;100116.47;;;8.49;70.08
40612;BME280;26317;44.894;20.286;2023-01-09T07:24:06;100083.59;;;8.39;69.90
40612;BME280;26317;44.894;20.286;2023-01-09T07:26:31;100077.72;;;8.47;69.81
40612;BME280;26317;44.894;20.286;2023-01-09T07:28:57;100091.88;;;8.57;69.89
40612;BME280;26317;44.894;20.286;2023-01-09T07:31:22;100099.09;;;8.62;70.05
40612;BME280;26317;44.894;20.286;2023-01-09T07:33:51;100054.97;;;8.44;70.04
40612;BME280;26317;44.894;20.286;2023-01-09T07:36:16;100092.13;;;8.76;69.28
40612;BME280;26317;44.894;20.286;2023-01-09T07:38:42;100073.69;;;8.69;69.31
40612;BME280;26317;44.894;20.286;2023-01-09T07:41:07;100066.72;;;8.73;69.28
40612;BME280;26317;44.894;20.286;2023-01-09T07:43:37;100077.66;;;8.82;69.58
40612;BME280;26317;44.894;20.286;2023-01-09T07:46:03;100072.88;;;8.79;70.29
40612;BME280;26317;44.894;20.286;2023-01-09T07:48:29;100052.03;;;8.66;71.64
40612;BME280;26317;44.894;20.286;2023-01-09T07:50:54;100053.34;;;8.68;73.25
40612;BME280;26317;44.894;20.286;2023-01-09T07:53:20;100084.63;;;8.93;73.64
40612;BME280;26317;44.894;20.286;2023-01-09T07:55:46;100065.66;;;8.85;74.38
40612;BME280;26317;44.894;20.286;2023-01-09T07:58:11;100063.22;;;8.83;74.40
40612;BME280;26317;44.894;20.286;2023-01-09T08:00:37;100058.94;;;8.77;75.12
40612;BME280;26317;44.894;20.286;2023-01-09T08:03:03;100069.66;;;8.77;74.58
40612;BME280;26317;44.894;20.286;2023-01-09T08:05:28;100052.84;;;8.66;75.67
40612;BME280;26317;44.894;20.286;2023-01-09T08:07:54;100072.06;;;8.68;74.79
40612;BME280;26317;44.894;20.286;2023-01-09T08:10:19;100061.66;;;8.62;75.15
40612;BME280;26317;44.894;20.286;2023-01-09T08:12:46;100068.31;;;8.69;75.33
40612;BME280;26317;44.894;20.286;2023-01-09T08:15:12;100068.59;;;8.73;74.94
40612;BME280;26317;44.894;20.286;2023-01-09T08:17:42;100062.72;;;8.66;75.53
40612;BME280;26317;44.894;20.286;2023-01-09T08:20:13;100065.41;;;8.71;75.09
40612;BME280;26317;44.894;20.286;2023-01-09T08:22:44;100067.53;;;8.74;75.19
40612;BME280;26317;44.894;20.286;2023-01-09T08:25:14;100067.00;;;8.72;74.19
40612;BME280;26317;44.894;20.286;2023-01-09T08:27:39;100066.47;;;8.75;74.42
40612;BME280;26317;44.894;20.286;2023-01-09T08:30:06;100065.91;;;8.78;73.70
40612;BME280;26317;44.894;20.286;2023-01-09T08:32:31;100070.72;;;8.81;72.93
40612;BME280;26317;44.894;20.286;2023-01-09T08:34:57;100055.22;;;8.73;73.30
40612;BME280;26317;44.894;20.286;2023-01-09T08:37:22;100083.28;;;8.86;73.51
40612;BME280;26317;44.894;20.286;2023-01-09T08:39:48;100080.84;;;8.89;73.59
40612;BME280;26317;44.894;20.286;2023-01-09T08:42:14;100078.47;;;8.88;72.87
40612;BME280;26317;44.894;20.286;2023-01-09T08:44:58;100077.91;;;8.96;73.22
40612;BME280;26317;44.894;20.286;2023-01-09T08:47:41;100101.69;;;9.07;73.16
40612;BME280;26317;44.894;20.286;2023-01-09T08:50:07;100094.72;;;9.16;73.82
40612;BME280;26317;44.894;20.286;2023-01-09T08:52:33;100087.22;;;9.18;73.68
40612;BME280;26317;44.894;20.286;2023-01-09T08:54:58;100045.81;;;9.01;73.80
40612;BME280;26317;44.894;20.286;2023-01-09T08:57:24;100073.81;;;9.23;74.37
40612;BME280;26317;44.894;20.286;2023-01-09T08:59:50;100082.38;;;9.26;74.83
40612;BME280;26317;44.894;20.286;2023-01-09T09:02:16;100069.03;;;9.20;74.83
40612;BME280;26317;44.894;20.286;2023-01-09T09:04:41;100096.28;;;9.28;76.27
40612;BME280;26317;44.894;20.286;2023-01-09T09:07:07;100096.81;;;9.30;75.85
40612;BME280;26317;44.894;20.286;2023-01-09T09:09:32;100097.06;;;9.33;75.58
40612;BME280;26317;44.894;20.286;2023-01-09T09:11:58;100098.41;;;9.36;76.19
40612;BME280;26317;44.894;20.286;2023-01-09T09:14:23;100072.75;;;9.24;75.83
40612;BME280;26317;44.894;20.286;2023-01-09T09:17:07;100092.75;;;9.42;76.66
40612;BME280;26317;44.894;20.286;2023-01-09T09:19:33;100054.03;;;9.24;77.73
40612;BME280;26317;44.894;20.286;2023-01-09T09:21:58;100106.13;;;9.47;77.64
40612;BME280;26317;44.894;20.286;2023-01-09T09:24:24;100110.13;;;9.45;77.67
40612;BME280;26317;44.894;20.286;2023-01-09T09:26:49;100097.31;;;9.47;77.75
40612;BME280;26317;44.894;20.286;2023-01-09T09:29:15;100101.31;;;9.44;78.84
40612;BME280;26317;44.894;20.286;2023-01-09T09:31:40;100104.22;;;9.53;78.40
40612;BME280;26317;44.894;20.286;2023-01-09T09:34:07;100112.78;;;9.55;78.34
40612;BME280;26317;44.894;20.286;2023-01-09T09:36:33;100087.66;;;9.46;77.71
40612;BME280;26317;44.894;20.286;2023-01-09T09:38:59;100097.50;;;9.60;77.28
40612;BME280;26317;44.894;20.286;2023-01-09T09:41:55;100098.28;;;9.61;77.25
40612;BME280;26317;44.894;20.286;2023-01-09T09:53:09;100075.78;;;9.67;78.99
40612;BME280;26317;44.894;20.286;2023-01-09T09:55:39;100038.41;;;9.47;79.79
40612;BME280;26317;44.894;20.286;2023-01-09T09:58:20;100057.03;;;9.67;80.52
40612;BME280;26317;44.894;20.286;2023-01-09T10:00:48;100041.56;;;9.59;81.01
40612;BME280;26317;44.894;20.286;2023-01-09T10:03:25;100047.97;;;9.58;81.11
40612;BME280;26317;44.894;20.286;2023-01-09T10:05:53;100051.72;;;9.62;81.32
40612;BME280;26317;44.894;20.286;2023-01-09T10:08:27;100052.75;;;9.66;81.62
40612;BME280;26317;44.894;20.286;2023-01-09T10:10:54;99992.97;;;9.32;82.07
40612;BME280;26317;44.894;20.286;2023-01-09T10:13:23;100038.31;;;9.62;82.51
40612;BME280;26317;44.894;20.286;2023-01-09T10:26:37;100011.09;;;9.50;84.23
40612;BME280;26317;44.894;20.286;2023-01-09T10:29:35;100009.94;;;9.61;84.75
40612;BME280;26317;44.894;20.286;2023-01-09T10:37:39;99986.41;;;9.58;84.99
40612;BME280;26317;44.894;20.286;2023-01-09T10:40:25;99977.56;;;9.57;85.18
40612;BME280;26317;44.894;20.286;2023-01-09T10:43:05;99964.44;;;9.61;84.73
40612;BME280;26317;44.894;20.286;2023-01-09T10:45:41;99967.34;;;9.64;84.71
40612;BME280;26317;44.894;20.286;2023-01-09T10:48:34;99960.66;;;9.67;85.24
40612;BME280;26317;44.894;20.286;2023-01-09T10:51:13;99935.78;;;9.61;85.48
40612;BME280;26317;44.894;20.286;2023-01-09T10:53:42;99949.91;;;9.72;84.86
40612;BME280;26317;44.894;20.286;2023-01-09T10:56:27;99925.31;;;9.65;85.13
40612;BME280;26317;44.894;20.286;2023-01-09T10:58:54;99932.75;;;9.73;85.42
40612;BME280;26317;44.894;20.286;2023-01-09T11:01:33;99883.09;;;9.52;84.72
40612;BME280;26317;44.894;20.286;2023-01-09T11:04:26;99919.56;;;9.82;85.35
40612;BME280;26317;44.894;20.286;2023-01-09T11:06:53;99886.25;;;9.64;85.21
40612;BME280;26317;44.894;20.286;2023-01-09T11:09:21;99891.00;;;9.72;85.41
40612;BME280;26317;44.894;20.286;2023-01-09T11:11:46;99897.06;;;9.83;85.14
40612;BME280;26317;44.894;20.286;2023-01-09T11:14:22;99895.63;;;9.90;84.73
40612;BME280;26317;44.894;20.286;2023-01-09T11:19:18;99879.91;;;10.12;84.13
40612;BME280;26317;44.894;20.286;2023-01-09T11:21:43;99882.53;;;10.23;83.62
40612;BME280;26317;44.894;20.286;2023-01-09T11:26:47;99863.53;;;10.43;83.92
40612;BME280;26317;44.894;20.286;2023-01-09T11:29:15;99856.50;;;10.47;83.19
40612;BME280;26317;44.894;20.286;2023-01-09T11:31:51;99856.72;;;10.50;82.53
40612;BME280;26317;44.894;20.286;2023-01-09T11:34:20;99832.94;;;10.44;81.85
40612;BME280;26317;44.894;20.286;2023-01-09T11:36:48;99848.53;;;10.60;80.75
40612;BME280;26317;44.894;20.286;2023-01-09T11:39:29;99847.41;;;10.67;80.37
40612;BME280;26317;44.894;20.286;2023-01-09T11:41:58;99839.63;;;10.65;80.61
40612;BME280;26317;44.894;20.286;2023-01-09T11:44:26;99838.34;;;10.63;80.49
40612;BME280;26317;44.894;20.286;2023-01-09T11:46:53;99837.47;;;10.67;79.07
40612;BME280;26317;44.894;20.286;2023-01-09T11:49:29;99822.63;;;10.56;79.75
40612;BME280;26317;44.894;20.286;2023-01-09T11:54:42;99818.44;;;10.69;78.99
40612;BME280;26317;44.894;20.286;2023-01-09T11:57:10;99818.13;;;10.70;79.00
40612;BME280;26317;44.894;20.286;2023-01-09T11:59:36;99824.16;;;10.81;78.95
40612;BME280;26317;44.894;20.286;2023-01-09T12:05:23;99787.97;;;10.78;77.85
40612;BME280;26317;44.894;20.286;2023-01-09T12:13:20;99797.91;;;10.78;77.79
40612;BME280;26317;44.894;20.286;2023-01-09T12:32:18;99759.94;;;10.89;77.83
40612;BME280;26317;44.894;20.286;2023-01-09T12:42:57;99742.84;;;10.99;76.64
40612;BME280;26317;44.894;20.286;2023-01-09T12:56:49;99722.31;;;11.08;76.51
40612;BME280;26317;44.894;20.286;2023-01-09T12:59:31;99718.03;;;11.07;77.21
40612;BME280;26317;44.894;20.286;2023-01-09T13:02:21;99720.91;;;11.11;77.84
40612;BME280;26317;44.894;20.286;2023-01-09T13:04:58;99724.63;;;11.15;78.89
40612;BME280;26317;44.894;20.286;2023-01-09T13:07:33;99717.84;;;11.03;78.61
40612;BME280;26317;44.894;20.286;2023-01-09T13:10:13;99730.50;;;11.17;77.80
40612;BME280;26317;44.894;20.286;2023-01-09T13:12:43;99729.22;;;11.14;78.18
40612;BME280;26317;44.894;20.286;2023-01-09T13:15:27;99722.97;;;11.19;78.42
40612;BME280;26317;44.894;20.286;2023-01-09T13:18:14;99723.25;;;11.17;78.04
40612;BME280;26317;44.894;20.286;2023-01-09T13:20:45;99719.47;;;11.18;78.17
40612;BME280;26317;44.894;20.286;2023-01-09T13:23:27;99704.13;;;11.05;78.17
40612;BME280;26317;44.894;20.286;2023-01-09T13:25:57;99719.09;;;11.25;76.45
40612;BME280;26317;44.894;20.286;2023-01-09T13:28:31;99712.78;;;11.16;75.66
40612;BME280;26317;44.894;20.286;2023-01-09T13:33:56;99699.44;;;11.11;74.76
40612;BME280;26317;44.894;20.286;2023-01-09T13:36:30;99727.34;;;11.28;73.98
40612;BME280;26317;44.894;20.286;2023-01-09T13:38:58;99726.75;;;11.31;72.48
40612;BME280;26317;44.894;20.286;2023-01-09T13:41:26;99719.22;;;11.33;73.13
40612;BME280;26317;44.894;20.286;2023-01-09T13:44:25;99724.84;;;11.32;73.25
40612;BME280;26317;44.894;20.286;2023-01-09T13:46:57;99674.19;;;10.98;73.22
40612;BME280;26317;44.894;20.286;2023-01-09T13:57:35;99719.41;;;11.37;72.21
40612;BME280;26317;44.894;20.286;2023-01-09T14:07:51;99689.53;;;11.11;74.42
40612;BME280;26317;44.894;20.286;2023-01-09T14:10:32;99709.16;;;11.25;74.53
40612;BME280;26317;44.894;20.286;2023-01-09T14:13:05;99707.34;;;11.21;74.58
40612;BME280;26317;44.894;20.286;2023-01-09T14:15:38;99686.75;;;11.16;74.46
40612;BME280;26317;44.894;20.286;2023-01-09T14:18:09;99664.56;;;10.97;74.52
40612;BME280;26317;44.894;20.286;2023-01-09T14:20:42;99685.66;;;11.17;73.46
40612;BME280;26317;44.894;20.286;2023-01-09T14:23:22;99682.91;;;11.22;73.38
40612;BME280;26317;44.894;20.286;2023-01-09T14:25:50;99694.44;;;11.23;73.93
40612;BME280;26317;44.894;20.286;2023-01-09T14:28:28;99675.22;;;11.16;73.37
40612;BME280;26317;44.894;20.286;2023-01-09T14:33:29;99679.41;;;11.22;73.79
40612;BME280;26317;44.894;20.286;2023-01-09T14:36:19;99669.47;;;11.22;73.91
40612;BME280;26317;44.894;20.286;2023-01-09T14:38:56;99645.22;;;11.14;74.05
40612;BME280;26317;44.894;20.286;2023-01-09T14:41:36;99672.66;;;11.24;74.76
40612;BME280;26317;44.894;20.286;2023-01-09T14:44:46;99655.34;;;11.17;74.02
40612;BME280;26317;44.894;20.286;2023-01-09T14:55:26;99623.91;;;11.03;74.90
40612;BME280;26317;44.894;20.286;2023-01-09T14:57:52;99634.88;;;11.21;74.96
40612;BME280;26317;44.894;20.286;2023-01-09T15:00:20;99645.22;;;11.14;74.89
40612;BME280;26317;44.894;20.286;2023-01-09T15:02:47;99634.66;;;11.03;74.94
40612;BME280;26317;44.894;20.286;2023-01-09T15:05:17;99617.06;;;10.97;75.34
40612;BME280;26317;44.894;20.286;2023-01-09T15:07:51;99626.00;;;11.06;75.32
40612;BME280;26317;44.894;20.286;2023-01-09T15:10:22;99603.81;;;10.87;75.51
40612;BME280;26317;44.894;20.286;2023-01-09T15:12:50;99614.16;;;10.94;76.04
40612;BME280;26317;44.894;20.286;2023-01-09T15:15:19;99605.69;;;10.87;76.12
40612;BME280;26317;44.894;20.286;2023-01-09T15:17:51;99599.41;;;10.78;75.83
40612;BME280;26317;44.894;20.286;2023-01-09T15:20:24;99613.53;;;10.83;76.31
40612;BME280;26317;44.894;20.286;2023-01-09T15:22:51;99598.53;;;10.82;76.46
40612;BME280;26317;44.894;20.286;2023-01-09T15:25:26;99580.63;;;10.64;76.36
40612;BME280;26317;44.894;20.286;2023-01-09T15:27:54;99601.81;;;10.79;76.81
40612;BME280;26317;44.894;20.286;2023-01-09T15:30:33;99584.00;;;10.70;76.32